Hurlburt Field
KHRT : now visible

Airfield :











YOU CAN JOIN US ON...

 
LOGIN :

Register | Disclaimer

   EN    FR    IT 

 









Legend :    VFR   Marginal VFR   IFR   Intensive IFR   Very Intensive IFR
Visi :
Ceiling :
>= 8 km
>= 3000ft
5 to 8 km
1000 to 3000 ft
1500m to 5 km
500 to 1000 ft
800 to 1500m
200 to 500 ft
< 800m
< 200 ft
Symbols :   Thunderstorms  Fog  Heavy snow  Heavy precipitations  Wind > 20 kt






- Airport Elevation : 38 ft


KHRT - Hurlburt Field

CURRENT METAR :
  • 262312Z AUTO 17003KT 10SM -RA FEW055 26/22 A2997 RMK AO2 RAB12 SLP150 $

EXPIRED METARs :
  • 262256Z AUTO 17004KT 10SM CLR 26/22 A2997 RMK AO2 SLP150 T02600216 $
  • 262156Z AUTO 18006KT 10SM CLR 27/21 A2996 RMK AO2 SLP147 T02740214 $
  • 262056Z AUTO 17007KT 10SM SCT036 30/21 A2996 RMK AO2 RAB06E16 SLP147 P0000 60000 T02960212 55012 $

TAF TAF KHRT
Valid from the 26 at 18:00 until the 28 at 00:00 UTC


261815Z 2618/2724 10010KT 9999 SCT030 QNH2993INS
BECMG 2701/2702 09010KT 9999 BKN020 QNH2996INS
BECMG 2705/2706 10009KT 6000 -SHRA OVC020 QNH2999INS
BECMG 2709/2710 05008KT 9999 NSW SCT020 QNH3001INS
BECMG 2716/2717 11010G15KT 4800 -SHRA SCT020 QNH2996INS
BECMG 2721/2722 09008KT 9999 NSW OVC012 QNH2995INS TX31/2620Z TN19/2711Z
KZJX FIR / North America



MET'MAP, your aeronautical weather chart ! - Copyright ORBIFLY December 2007 - Disclaimer

ORBIFLY MET'MAP TEAM :

Programming & Development : Alexandra Zaïnal
Concept & original design : Baudouin d'Aumeries
Assistance for programming : Marc-Olivier Méhu
Technical & hardware support : Manuel Goepfert

Contact : metmap@orbifly.com




SOURCES & CREDITS :

   NOAA       Earth
Advisory